Big Creek (Missouri), Sam Baker State Park (07037300)

StateMissouriLatestPoor (19 cfs)
RiverBig CreekRatingObservedEstimated
Updated2020-07-13 20:00 (26 minutes ago)Flood - The river is flooding. Obstacles can be treacherous or deadly. The river should be avoided at this stage for casual trips and definitely for the inexperienced. Trips should be attempted only with protective gear and equipment.Flood(none)1635
Discharge19 cfs (median: 46 cfs)High - The river is high and potentially dangerous, especially for the young and / or inexperienced. Normal stream obstacles are sometimes difficult to navigate. Extended distances can be attempted, but canoe travel may not be advisable.High(none)756
Height0.88 feetGood - Conditions are ideal for a canoe or kayak. Boats typically will drag on fewer than one-quarter of riffles, if at all, and portages are unnecessary or rare. Normal float lengths can be attempted without a problem.Good(none)323
TrendSteady (falling over 24 hours)Low - River is low but can still be floated. Some riffles are okay but most come with significant dragging and might need a portage. Float lengths should be reduced to accommodate low flow, dragging, and portages.Low(none)71
USGSExternal icon USGS Site (External icon Google Maps)Poor - River is too low to float comfortably. Most or all riffles will drag or must be portaged and some obstacles (such as slick shelf rock) cause undue problems. Avoid the river at this stage for casual paddling trips.Poor(none)35

Trending Data

Plot Image

Trips for Big Creek (Missouri), Sam Baker State Park (07037300)

DateStartEndDistanceConditionDischargeHeightFishingDetails
Click for details2009-05-08 MO 143 Saint Francis River Total trip distance: 11.6 miles11.3 Good 497 2.94 None NoneNone Bowe, Michelle
Edmond, Brian
Bowe, Michelle; Edmond, Brian
No notes for this trip<i>No notes for this trip</i> USGS Gauge Data:
Sam Baker State Park (07037300)
Discharge: 497
Height: 2.94
<b>USGS Gauge Data:</b></br />Sam Baker State Park (07037300)<br />Discharge: 497<br />Height: 2.94
Source: EdmondSource: Edmond

A total of 1 rows are displayed.

Trip Summary for Big Creek (Missouri), Sam Baker State Park (07037300)

Miles11.3
Trips1
People2
Dates1
Years1
Months1
Rows1
Sources1

Condition Descriptions

Fishing Conditions

Fish Species

Notes

Classic Trip List

The classic River Trips application is still available for use. It is updated with the new system using a data retrofit. It is no longer maintained. The original River Trips application is no longer updated (as of 1 Dec 2016) but can be checked for errors or for the condition of the data before it was converted to the new system.

Gauge Data Table

ObservationHeightDischargeMaximum
Discharge
Minimum
Discharge
Mean
Discharge
P05P10P20P25P50
(Median)
P75P80P90P95
2020-07-13 20:00 0.88 19 439 (2015) 9 (2012) 77 17 29 31 46 74 85 276
2020-07-13 19:30 0.88 19 439 (2015) 9 (2012) 77 17 29 31 46 74 85 276
2020-07-13 19:00 0.89 20 439 (2015) 9 (2012) 77 17 29 31 46 74 85 276
2020-07-13 18:30 0.88 19 439 (2015) 9 (2012) 77 17 29 31 46 74 85 276
2020-07-13 18:00 0.89 20 439 (2015) 9 (2012) 77 17 29 31 46 74 85 276
2020-07-13 17:30 0.89 20 439 (2015) 9 (2012) 77 17 29 31 46 74 85 276
2020-07-13 17:00 0.91 22 439 (2015) 9 (2012) 77 17 29 31 46 74 85 276
2020-07-13 16:30 0.89 20 439 (2015) 9 (2012) 77 17 29 31 46 74 85 276
2020-07-13 16:00 0.89 20 439 (2015) 9 (2012) 77 17 29 31 46 74 85 276
2020-07-13 15:30 0.88 19 439 (2015) 9 (2012) 77 17 29 31 46 74 85 276
2020-07-13 15:00 0.88 19 439 (2015) 9 (2012) 77 17 29 31 46 74 85 276
2020-07-13 14:30 0.91 22 439 (2015) 9 (2012) 77 17 29 31 46 74 85 276
2020-07-13 14:00 0.88 19 439 (2015) 9 (2012) 77 17 29 31 46 74 85 276
2020-07-13 13:30 0.91 22 439 (2015) 9 (2012) 77 17 29 31 46 74 85 276
2020-07-13 13:00 0.92 23 439 (2015) 9 (2012) 77 17 29 31 46 74 85 276
2020-07-13 12:30 0.89 20 439 (2015) 9 (2012) 77 17 29 31 46 74 85 276
2020-07-13 12:00 0.90 21 439 (2015) 9 (2012) 77 17 29 31 46 74 85 276
2020-07-13 11:30 0.91 22 439 (2015) 9 (2012) 77 17 29 31 46 74 85 276
2020-07-13 11:00 0.89 20 439 (2015) 9 (2012) 77 17 29 31 46 74 85 276
2020-07-13 10:30 0.89 20 439 (2015) 9 (2012) 77 17 29 31 46 74 85 276
2020-07-13 10:00 0.89 20 439 (2015) 9 (2012) 77 17 29 31 46 74 85 276
2020-07-13 09:30 0.90 21 439 (2015) 9 (2012) 77 17 29 31 46 74 85 276
2020-07-13 09:00 0.89 20 439 (2015) 9 (2012) 77 17 29 31 46 74 85 276
2020-07-13 08:30 0.89 20 439 (2015) 9 (2012) 77 17 29 31 46 74 85 276
2020-07-13 08:00 0.89 20 439 (2015) 9 (2012) 77 17 29 31 46 74 85 276
2020-07-13 07:30 0.90 21 439 (2015) 9 (2012) 77 17 29 31 46 74 85 276
2020-07-13 07:00 0.90 21 439 (2015) 9 (2012) 77 17 29 31 46 74 85 276
2020-07-13 06:30 0.89 20 439 (2015) 9 (2012) 77 17 29 31 46 74 85 276
2020-07-13 06:00 0.89 20 439 (2015) 9 (2012) 77 17 29 31 46 74 85 276
2020-07-13 05:30 0.90 21 439 (2015) 9 (2012) 77 17 29 31 46 74 85 276
2020-07-13 05:00 0.90 21 439 (2015) 9 (2012) 77 17 29 31 46 74 85 276
2020-07-13 04:30 0.89 20 439 (2015) 9 (2012) 77 17 29 31 46 74 85 276
2020-07-13 04:00 0.89 20 439 (2015) 9 (2012) 77 17 29 31 46 74 85 276
2020-07-13 03:30 0.90 21 439 (2015) 9 (2012) 77 17 29 31 46 74 85 276
2020-07-13 03:00 0.90 21 439 (2015) 9 (2012) 77 17 29 31 46 74 85 276
2020-07-13 02:30 0.91 22 439 (2015) 9 (2012) 77 17 29 31 46 74 85 276
2020-07-13 02:00 0.90 21 439 (2015) 9 (2012) 77 17 29 31 46 74 85 276
2020-07-13 01:30 0.90 21 439 (2015) 9 (2012) 77 17 29 31 46 74 85 276
2020-07-13 01:00 0.90 21 439 (2015) 9 (2012) 77 17 29 31 46 74 85 276
2020-07-13 00:30 0.91 22 439 (2015) 9 (2012) 77 17 29 31 46 74 85 276
2020-07-13 00:00 0.97 29 439 (2015) 9 (2012) 77 17 29 31 46 74 85 276
2020-07-12 23:30 0.89 20 677 (2015) 12 (2012) 103 19 29 30 46 100 126 406
2020-07-12 23:00 0.89 20 677 (2015) 12 (2012) 103 19 29 30 46 100 126 406
2020-07-12 22:30 0.89 20 677 (2015) 12 (2012) 103 19 29 30 46 100 126 406
2020-07-12 22:00 0.89 20 677 (2015) 12 (2012) 103 19 29 30 46 100 126 406
2020-07-12 21:30 0.91 22 677 (2015) 12 (2012) 103 19 29 30 46 100 126 406
2020-07-12 21:00 0.90 21 677 (2015) 12 (2012) 103 19 29 30 46 100 126 406
2020-07-12 20:30 0.89 20 677 (2015) 12 (2012) 103 19 29 30 46 100 126 406
2020-07-12 20:00 0.89 20 677 (2015) 12 (2012) 103 19 29 30 46 100 126 406
2020-07-12 19:30 0.90 21 677 (2015) 12 (2012) 103 19 29 30 46 100 126 406
2020-07-12 19:00 0.90 21 677 (2015) 12 (2012) 103 19 29 30 46 100 126 406
2020-07-12 18:30 0.90 21 677 (2015) 12 (2012) 103 19 29 30 46 100 126 406
2020-07-12 18:00 0.91 22 677 (2015) 12 (2012) 103 19 29 30 46 100 126 406
2020-07-12 17:30 0.91 22 677 (2015) 12 (2012) 103 19 29 30 46 100 126 406
2020-07-12 17:00 0.92 23 677 (2015) 12 (2012) 103 19 29 30 46 100 126 406
2020-07-12 16:30 0.90 21 677 (2015) 12 (2012) 103 19 29 30 46 100 126 406
2020-07-12 16:00 0.90 21 677 (2015) 12 (2012) 103 19 29 30 46 100 126 406
2020-07-12 15:30 0.92 23 677 (2015) 12 (2012) 103 19 29 30 46 100 126 406
2020-07-12 15:00 0.91 22 677 (2015) 12 (2012) 103 19 29 30 46 100 126 406
2020-07-12 14:30 0.93 24 677 (2015) 12 (2012) 103 19 29 30 46 100 126 406
2020-07-12 14:00 0.91 22 677 (2015) 12 (2012) 103 19 29 30 46 100 126 406
2020-07-12 13:30 0.94 25 677 (2015) 12 (2012) 103 19 29 30 46 100 126 406
2020-07-12 13:00 0.91 22 677 (2015) 12 (2012) 103 19 29 30 46 100 126 406
2020-07-12 12:30 0.93 24 677 (2015) 12 (2012) 103 19 29 30 46 100 126 406
2020-07-12 12:00 0.91 22 677 (2015) 12 (2012) 103 19 29 30 46 100 126 406
2020-07-12 11:30 0.92 23 677 (2015) 12 (2012) 103 19 29 30 46 100 126 406
2020-07-12 11:00 0.92 23 677 (2015) 12 (2012) 103 19 29 30 46 100 126 406
2020-07-12 10:30 0.95 26 677 (2015) 12 (2012) 103 19 29 30 46 100 126 406
2020-07-12 10:00 0.93 24 677 (2015) 12 (2012) 103 19 29 30 46 100 126 406
2020-07-12 09:30 0.94 25 677 (2015) 12 (2012) 103 19 29 30 46 100 126 406
2020-07-12 09:00 0.93 24 677 (2015) 12 (2012) 103 19 29 30 46 100 126 406
2020-07-12 08:30 0.93 24 677 (2015) 12 (2012) 103 19 29 30 46 100 126 406
2020-07-12 08:00 0.91 22 677 (2015) 12 (2012) 103 19 29 30 46 100 126 406
2020-07-12 07:30 0.91 22 677 (2015) 12 (2012) 103 19 29 30 46 100 126 406
2020-07-12 07:00 0.91 22 677 (2015) 12 (2012) 103 19 29 30 46 100 126 406
2020-07-12 06:30 0.91 22 677 (2015) 12 (2012) 103 19 29 30 46 100 126 406
2020-07-12 06:00 0.91 22 677 (2015) 12 (2012) 103 19 29 30 46 100 126 406
2020-07-12 05:30 0.91 22 677 (2015) 12 (2012) 103 19 29 30 46 100 126 406
2020-07-12 05:00 0.91 22 677 (2015) 12 (2012) 103 19 29 30 46 100 126 406
2020-07-12 04:30 0.92 23 677 (2015) 12 (2012) 103 19 29 30 46 100 126 406
2020-07-12 04:00 0.91 22 677 (2015) 12 (2012) 103 19 29 30 46 100 126 406
2020-07-12 03:30 0.91 22 677 (2015) 12 (2012) 103 19 29 30 46 100 126 406
2020-07-12 03:00 0.92 23 677 (2015) 12 (2012) 103 19 29 30 46 100 126 406
2020-07-12 02:30 0.91 22 677 (2015) 12 (2012) 103 19 29 30 46 100 126 406
2020-07-12 02:00 0.92 23 677 (2015) 12 (2012) 103 19 29 30 46 100 126 406
2020-07-12 01:30 0.91 22 677 (2015) 12 (2012) 103 19 29 30 46 100 126 406
2020-07-12 01:00 0.92 23 677 (2015) 12 (2012) 103 19 29 30 46 100 126 406
2020-07-12 00:30 0.92 23 677 (2015) 12 (2012) 103 19 29 30 46 100 126 406
2020-07-12 00:00 0.92 23 677 (2015) 12 (2012) 103 19 29 30 46 100 126 406
2020-07-11 23:30 0.92 23 1470 (2015) 14 (2012) 154 20 28 34 47 71 99 808
2020-07-11 23:00 0.92 23 1470 (2015) 14 (2012) 154 20 28 34 47 71 99 808
2020-07-11 22:30 0.92 23 1470 (2015) 14 (2012) 154 20 28 34 47 71 99 808
2020-07-11 22:00 0.92 23 1470 (2015) 14 (2012) 154 20 28 34 47 71 99 808
2020-07-11 21:30 0.93 24 1470 (2015) 14 (2012) 154 20 28 34 47 71 99 808
2020-07-11 21:00 0.93 24 1470 (2015) 14 (2012) 154 20 28 34 47 71 99 808
2020-07-11 20:30 0.93 24 1470 (2015) 14 (2012) 154 20 28 34 47 71 99 808
2020-07-11 20:00 0.93 24 1470 (2015) 14 (2012) 154 20 28 34 47 71 99 808
2020-07-11 19:30 0.94 25 1470 (2015) 14 (2012) 154 20 28 34 47 71 99 808
2020-07-11 19:00 0.92 23 1470 (2015) 14 (2012) 154 20 28 34 47 71 99 808
2020-07-11 18:30 0.94 25 1470 (2015) 14 (2012) 154 20 28 34 47 71 99 808
2020-07-11 18:00 0.94 25 1470 (2015) 14 (2012) 154 20 28 34 47 71 99 808
2020-07-11 17:30 0.94 25 1470 (2015) 14 (2012) 154 20 28 34 47 71 99 808
2020-07-11 17:00 0.94 25 1470 (2015) 14 (2012) 154 20 28 34 47 71 99 808
2020-07-11 16:30 0.96 28 1470 (2015) 14 (2012) 154 20 28 34 47 71 99 808
2020-07-11 16:00 0.96 28 1470 (2015) 14 (2012) 154 20 28 34 47 71 99 808
2020-07-11 15:30 0.95 26 1470 (2015) 14 (2012) 154 20 28 34 47 71 99 808
2020-07-11 15:00 0.96 28 1470 (2015) 14 (2012) 154 20 28 34 47 71 99 808
2020-07-11 14:30 0.96 28 1470 (2015) 14 (2012) 154 20 28 34 47 71 99 808
2020-07-11 14:00 0.95 26 1470 (2015) 14 (2012) 154 20 28 34 47 71 99 808
2020-07-11 13:30 0.95 26 1470 (2015) 14 (2012) 154 20 28 34 47 71 99 808
2020-07-11 13:00 0.94 25 1470 (2015) 14 (2012) 154 20 28 34 47 71 99 808
2020-07-11 12:30 0.94 25 1470 (2015) 14 (2012) 154 20 28 34 47 71 99 808
2020-07-11 12:00 0.96 28 1470 (2015) 14 (2012) 154 20 28 34 47 71 99 808
2020-07-11 11:30 0.94 25 1470 (2015) 14 (2012) 154 20 28 34 47 71 99 808
2020-07-11 11:00 0.95 26 1470 (2015) 14 (2012) 154 20 28 34 47 71 99 808
2020-07-11 10:30 0.95 26 1470 (2015) 14 (2012) 154 20 28 34 47 71 99 808
2020-07-11 10:00 0.95 26 1470 (2015) 14 (2012) 154 20 28 34 47 71 99 808
2020-07-11 09:30 0.95 26 1470 (2015) 14 (2012) 154 20 28 34 47 71 99 808
2020-07-11 09:00 0.95 26 1470 (2015) 14 (2012) 154 20 28 34 47 71 99 808
2020-07-11 08:30 0.95 26 1470 (2015) 14 (2012) 154 20 28 34 47 71 99 808
2020-07-11 08:00 0.95 26 1470 (2015) 14 (2012) 154 20 28 34 47 71 99 808
2020-07-11 07:30 0.94 25 1470 (2015) 14 (2012) 154 20 28 34 47 71 99 808
2020-07-11 07:00 0.95 26 1470 (2015) 14 (2012) 154 20 28 34 47 71 99 808
2020-07-11 06:30 0.95 26 1470 (2015) 14 (2012) 154 20 28 34 47 71 99 808
2020-07-11 06:00 0.94 25 1470 (2015) 14 (2012) 154 20 28 34 47 71 99 808
2020-07-11 05:30 0.94 25 1470 (2015) 14 (2012) 154 20 28 34 47 71 99 808
2020-07-11 05:00 0.94 25 1470 (2015) 14 (2012) 154 20 28 34 47 71 99 808
2020-07-11 04:30 0.94 25 1470 (2015) 14 (2012) 154 20 28 34 47 71 99 808
2020-07-11 04:00 0.94 25 1470 (2015) 14 (2012) 154 20 28 34 47 71 99 808
2020-07-11 03:30 0.94 25 1470 (2015) 14 (2012) 154 20 28 34 47 71 99 808
2020-07-11 03:00 0.94 25 1470 (2015) 14 (2012) 154 20 28 34 47 71 99 808
2020-07-11 02:30 0.94 25 1470 (2015) 14 (2012) 154 20 28 34 47 71 99 808
2020-07-11 02:00 0.94 25 1470 (2015) 14 (2012) 154 20 28 34 47 71 99 808
2020-07-11 01:30 0.94 25 1470 (2015) 14 (2012) 154 20 28 34 47 71 99 808
2020-07-11 01:00 0.95 26 1470 (2015) 14 (2012) 154 20 28 34 47 71 99 808
2020-07-11 00:30 0.94 25 1470 (2015) 14 (2012) 154 20 28 34 47 71 99 808
2020-07-11 00:00 0.95 26 1470 (2015) 14 (2012) 154 20 28 34 47 71 99 808
2020-07-10 23:30 0.94 25 1990 (2015) 12 (2012) 193 18 30 31 40 84 111 1090
2020-07-10 23:00 0.95 26 1990 (2015) 12 (2012) 193 18 30 31 40 84 111 1090
2020-07-10 22:30 0.95 26 1990 (2015) 12 (2012) 193 18 30 31 40 84 111 1090
2020-07-10 22:00 0.95 26 1990 (2015) 12 (2012) 193 18 30 31 40 84 111 1090
2020-07-10 21:30 0.96 28 1990 (2015) 12 (2012) 193 18 30 31 40 84 111 1090
2020-07-10 21:00 0.95 26 1990 (2015) 12 (2012) 193 18 30 31 40 84 111 1090
2020-07-10 20:30 0.95 26 1990 (2015) 12 (2012) 193 18 30 31 40 84 111 1090
2020-07-10 20:00 0.95 26 1990 (2015) 12 (2012) 193 18 30 31 40 84 111 1090
2020-07-10 19:30 0.96 28 1990 (2015) 12 (2012) 193 18 30 31 40 84 111 1090
2020-07-10 19:00 0.97 29 1990 (2015) 12 (2012) 193 18 30 31 40 84 111 1090
2020-07-10 18:30 0.96 28 1990 (2015) 12 (2012) 193 18 30 31 40 84 111 1090
2020-07-10 18:00 0.97 29 1990 (2015) 12 (2012) 193 18 30 31 40 84 111 1090
2020-07-10 17:30 0.96 28 1990 (2015) 12 (2012) 193 18 30 31 40 84 111 1090
2020-07-10 17:00 0.97 29 1990 (2015) 12 (2012) 193 18 30 31 40 84 111 1090
2020-07-10 16:30 0.98 30 1990 (2015) 12 (2012) 193 18 30 31 40 84 111 1090
2020-07-10 16:00 0.98 30 1990 (2015) 12 (2012) 193 18 30 31 40 84 111 1090
2020-07-10 15:30 0.98 30 1990 (2015) 12 (2012) 193 18 30 31 40 84 111 1090
2020-07-10 15:00 0.98 30 1990 (2015) 12 (2012) 193 18 30 31 40 84 111 1090
2020-07-10 14:30 0.98 30 1990 (2015) 12 (2012) 193 18 30 31 40 84 111 1090
2020-07-10 14:00 0.98 30 1990 (2015) 12 (2012) 193 18 30 31 40 84 111 1090
2020-07-10 13:30 0.97 29 1990 (2015) 12 (2012) 193 18 30 31 40 84 111 1090
2020-07-10 13:00 0.98 30 1990 (2015) 12 (2012) 193 18 30 31 40 84 111 1090
2020-07-10 12:30 0.98 30 1990 (2015) 12 (2012) 193 18 30 31 40 84 111 1090
2020-07-10 12:00 0.97 29 1990 (2015) 12 (2012) 193 18 30 31 40 84 111 1090
2020-07-10 11:30 0.97 29 1990 (2015) 12 (2012) 193 18 30 31 40 84 111 1090
2020-07-10 11:00 0.97 29 1990 (2015) 12 (2012) 193 18 30 31 40 84 111 1090
2020-07-10 10:30 0.97 29 1990 (2015) 12 (2012) 193 18 30 31 40 84 111 1090
2020-07-10 10:00 0.97 29 1990 (2015) 12 (2012) 193 18 30 31 40 84 111 1090
2020-07-10 09:30 0.99 31 1990 (2015) 12 (2012) 193 18 30 31 40 84 111 1090
2020-07-10 09:00 0.96 28 1990 (2015) 12 (2012) 193 18 30 31 40 84 111 1090
2020-07-10 08:30 0.96 28 1990 (2015) 12 (2012) 193 18 30 31 40 84 111 1090
2020-07-10 08:00 0.96 28 1990 (2015) 12 (2012) 193 18 30 31 40 84 111 1090
2020-07-10 07:30 0.96 28 1990 (2015) 12 (2012) 193 18 30 31 40 84 111 1090
2020-07-10 07:00 0.96 28 1990 (2015) 12 (2012) 193 18 30 31 40 84 111 1090
2020-07-10 06:30 0.96 28 1990 (2015) 12 (2012) 193 18 30 31 40 84 111 1090
2020-07-10 06:00 0.96 28 1990 (2015) 12 (2012) 193 18 30 31 40 84 111 1090
2020-07-10 05:30 0.96 28 1990 (2015) 12 (2012) 193 18 30 31 40 84 111 1090
2020-07-10 05:00 0.96 28 1990 (2015) 12 (2012) 193 18 30 31 40 84 111 1090
2020-07-10 04:30 0.96 28 1990 (2015) 12 (2012) 193 18 30 31 40 84 111 1090
2020-07-10 04:00 0.96 28 1990 (2015) 12 (2012) 193 18 30 31 40 84 111 1090
2020-07-10 03:30 0.96 28 1990 (2015) 12 (2012) 193 18 30 31 40 84 111 1090
2020-07-10 03:00 0.96 28 1990 (2015) 12 (2012) 193 18 30 31 40 84 111 1090
2020-07-10 02:30 0.96 28 1990 (2015) 12 (2012) 193 18 30 31 40 84 111 1090
2020-07-10 02:00 0.96 28 1990 (2015) 12 (2012) 193 18 30 31 40 84 111 1090
2020-07-10 01:30 0.96 28 1990 (2015) 12 (2012) 193 18 30 31 40 84 111 1090
2020-07-10 01:00 0.96 28 1990 (2015) 12 (2012) 193 18 30 31 40 84 111 1090
2020-07-10 00:30 0.97 29 1990 (2015) 12 (2012) 193 18 30 31 40 84 111 1090
2020-07-10 00:00 0.96 28 1990 (2015) 12 (2012) 193 18 30 31 40 84 111 1090
2020-07-09 23:30 0.97 29 298 (2015) 8 (2012) 78 16 31 33 42 83 128 266
2020-07-09 23:00 0.97 29 298 (2015) 8 (2012) 78 16 31 33 42 83 128 266
2020-07-09 22:30 0.97 29 298 (2015) 8 (2012) 78 16 31 33 42 83 128 266
2020-07-09 22:00 0.97 29 298 (2015) 8 (2012) 78 16 31 33 42 83 128 266
2020-07-09 21:30 0.97 29 298 (2015) 8 (2012) 78 16 31 33 42 83 128 266
2020-07-09 21:00 0.98 30 298 (2015) 8 (2012) 78 16 31 33 42 83 128 266
2020-07-09 20:30 0.98 30 298 (2015) 8 (2012) 78 16 31 33 42 83 128 266
2020-07-09 20:00 0.98 30 298 (2015) 8 (2012) 78 16 31 33 42 83 128 266
2020-07-09 19:30 0.98 30 298 (2015) 8 (2012) 78 16 31 33 42 83 128 266
2020-07-09 19:00 0.98 30 298 (2015) 8 (2012) 78 16 31 33 42 83 128 266
2020-07-09 18:30 0.98 30 298 (2015) 8 (2012) 78 16 31 33 42 83 128 266
2020-07-09 18:00 0.98 30 298 (2015) 8 (2012) 78 16 31 33 42 83 128 266
2020-07-09 17:30 0.98 30 298 (2015) 8 (2012) 78 16 31 33 42 83 128 266
2020-07-09 17:00 0.98 30 298 (2015) 8 (2012) 78 16 31 33 42 83 128 266
2020-07-09 16:30 0.99 31 298 (2015) 8 (2012) 78 16 31 33 42 83 128 266
2020-07-09 16:00 0.99 31 298 (2015) 8 (2012) 78 16 31 33 42 83 128 266
2020-07-09 15:30 0.99 31 298 (2015) 8 (2012) 78 16 31 33 42 83 128 266
2020-07-09 15:00 1.00 32 298 (2015) 8 (2012) 78 16 31 33 42 83 128 266
2020-07-09 14:30 0.99 31 298 (2015) 8 (2012) 78 16 31 33 42 83 128 266
2020-07-09 14:00 1.00 32 298 (2015) 8 (2012) 78 16 31 33 42 83 128 266
2020-07-09 13:30 1.00 32 298 (2015) 8 (2012) 78 16 31 33 42 83 128 266
2020-07-09 12:30 0.99 31 298 (2015) 8 (2012) 78 16 31 33 42 83 128 266
2020-07-09 12:00 0.99 31 298 (2015) 8 (2012) 78 16 31 33 42 83 128 266
2020-07-09 11:30 0.99 31 298 (2015) 8 (2012) 78 16 31 33 42 83 128 266
2020-07-09 11:00 0.99 31 298 (2015) 8 (2012) 78 16 31 33 42 83 128 266
2020-07-09 10:30 1.00 32 298 (2015) 8 (2012) 78 16 31 33 42 83 128 266
2020-07-09 10:00 0.99 31 298 (2015) 8 (2012) 78 16 31 33 42 83 128 266
2020-07-09 09:30 0.99 31 298 (2015) 8 (2012) 78 16 31 33 42 83 128 266
2020-07-09 09:00 0.99 31 298 (2015) 8 (2012) 78 16 31 33 42 83 128 266
2020-07-09 08:30 1.00 32 298 (2015) 8 (2012) 78 16 31 33 42 83 128 266
2020-07-09 08:00 0.99 31 298 (2015) 8 (2012) 78 16 31 33 42 83 128 266
2020-07-09 07:30 0.99 31 298 (2015) 8 (2012) 78 16 31 33 42 83 128 266
2020-07-09 07:00 0.99 31 298 (2015) 8 (2012) 78 16 31 33 42 83 128 266
2020-07-09 06:30 0.99 31 298 (2015) 8 (2012) 78 16 31 33 42 83 128 266
2020-07-09 06:00 0.98 30 298 (2015) 8 (2012) 78 16 31 33 42 83 128 266
2020-07-09 05:30 0.98 30 298 (2015) 8 (2012) 78 16 31 33 42 83 128 266
2020-07-09 05:00 0.98 30 298 (2015) 8 (2012) 78 16 31 33 42 83 128 266
2020-07-09 04:30 0.98 30 298 (2015) 8 (2012) 78 16 31 33 42 83 128 266
2020-07-09 04:00 0.98 30 298 (2015) 8 (2012) 78 16 31 33 42 83 128 266
2020-07-09 03:30 0.98 30 298 (2015) 8 (2012) 78 16 31 33 42 83 128 266
2020-07-09 03:00 0.98 30 298 (2015) 8 (2012) 78 16 31 33 42 83 128 266
2020-07-09 02:30 0.98 30 298 (2015) 8 (2012) 78 16 31 33 42 83 128 266
2020-07-09 02:00 0.98 30 298 (2015) 8 (2012) 78 16 31 33 42 83 128 266
2020-07-09 01:30 0.98 30 298 (2015) 8 (2012) 78 16 31 33 42 83 128 266
2020-07-09 01:00 0.98 30 298 (2015) 8 (2012) 78 16 31 33 42 83 128 266
2020-07-09 00:30 0.97 29 298 (2015) 8 (2012) 78 16 31 33 42 83 128 266
2020-07-09 00:00 0.97 29 298 (2015) 8 (2012) 78 16 31 33 42 83 128 266
2020-07-08 23:30 0.96 28 311 (2016) 11 (2012) 82 18 28 29 45 87 145 281
2020-07-08 23:00 0.96 28 311 (2016) 11 (2012) 82 18 28 29 45 87 145 281
2020-07-08 22:30 0.96 28 311 (2016) 11 (2012) 82 18 28 29 45 87 145 281
2020-07-08 22:00 0.96 28 311 (2016) 11 (2012) 82 18 28 29 45 87 145 281
2020-07-08 21:30 0.96 28 311 (2016) 11 (2012) 82 18 28 29 45 87 145 281
2020-07-08 21:00 0.96 28 311 (2016) 11 (2012) 82 18 28 29 45 87 145 281
2020-07-08 20:30 0.96 28 311 (2016) 11 (2012) 82 18 28 29 45 87 145 281
2020-07-08 20:00 0.96 28 311 (2016) 11 (2012) 82 18 28 29 45 87 145 281
2020-07-08 19:30 0.96 28 311 (2016) 11 (2012) 82 18 28 29 45 87 145 281
2020-07-08 19:00 0.96 28 311 (2016) 11 (2012) 82 18 28 29 45 87 145 281
2020-07-08 18:30 0.96 28 311 (2016) 11 (2012) 82 18 28 29 45 87 145 281
2020-07-08 18:00 0.96 28 311 (2016) 11 (2012) 82 18 28 29 45 87 145 281
2020-07-08 17:30 0.95 26 311 (2016) 11 (2012) 82 18 28 29 45 87 145 281
2020-07-08 17:00 0.96 28 311 (2016) 11 (2012) 82 18 28 29 45 87 145 281
2020-07-08 16:30 0.96 28 311 (2016) 11 (2012) 82 18 28 29 45 87 145 281
2020-07-08 16:00 0.95 26 311 (2016) 11 (2012) 82 18 28 29 45 87 145 281
2020-07-08 15:30 0.96 28 311 (2016) 11 (2012) 82 18 28 29 45 87 145 281
2020-07-08 15:00 0.96 28 311 (2016) 11 (2012) 82 18 28 29 45 87 145 281
2020-07-08 14:30 0.96 28 311 (2016) 11 (2012) 82 18 28 29 45 87 145 281
2020-07-08 14:00 0.96 28 311 (2016) 11 (2012) 82 18 28 29 45 87 145 281
2020-07-08 13:30 0.96 28 311 (2016) 11 (2012) 82 18 28 29 45 87 145 281
2020-07-08 13:00 0.95 26 311 (2016) 11 (2012) 82 18 28 29 45 87 145 281
2020-07-08 12:30 0.95 26 311 (2016) 11 (2012) 82 18 28 29 45 87 145 281
2020-07-08 12:00 0.95 26 311 (2016) 11 (2012) 82 18 28 29 45 87 145 281
2020-07-08 11:30 0.95 26 311 (2016) 11 (2012) 82 18 28 29 45 87 145 281
2020-07-08 11:00 0.95 26 311 (2016) 11 (2012) 82 18 28 29 45 87 145 281
2020-07-08 10:30 0.96 28 311 (2016) 11 (2012) 82 18 28 29 45 87 145 281
2020-07-08 10:00 0.95 26 311 (2016) 11 (2012) 82 18 28 29 45 87 145 281
2020-07-08 09:30 0.95 26 311 (2016) 11 (2012) 82 18 28 29 45 87 145 281
2020-07-08 09:00 0.95 26 311 (2016) 11 (2012) 82 18 28 29 45 87 145 281
2020-07-08 08:30 0.95 26 311 (2016) 11 (2012) 82 18 28 29 45 87 145 281
2020-07-08 08:00 0.95 26 311 (2016) 11 (2012) 82 18 28 29 45 87 145 281
2020-07-08 07:30 0.95 26 311 (2016) 11 (2012) 82 18 28 29 45 87 145 281
2020-07-08 07:00 0.94 25 311 (2016) 11 (2012) 82 18 28 29 45 87 145 281
2020-07-08 06:30 0.94 25 311 (2016) 11 (2012) 82 18 28 29 45 87 145 281
2020-07-08 06:00 0.94 25 311 (2016) 11 (2012) 82 18 28 29 45 87 145 281
2020-07-08 05:30 0.94 25 311 (2016) 11 (2012) 82 18 28 29 45 87 145 281
2020-07-08 05:00 0.94 25 311 (2016) 11 (2012) 82 18 28 29 45 87 145 281
2020-07-08 04:30 0.94 25 311 (2016) 11 (2012) 82 18 28 29 45 87 145 281
2020-07-08 04:00 0.95 26 311 (2016) 11 (2012) 82 18 28 29 45 87 145 281
2020-07-08 03:30 0.94 25 311 (2016) 11 (2012) 82 18 28 29 45 87 145 281
2020-07-08 03:00 0.94 25 311 (2016) 11 (2012) 82 18 28 29 45 87 145 281
2020-07-08 02:30 0.94 25 311 (2016) 11 (2012) 82 18 28 29 45 87 145 281
2020-07-08 02:00 0.94 25 311 (2016) 11 (2012) 82 18 28 29 45 87 145 281
2020-07-08 01:30 0.94 25 311 (2016) 11 (2012) 82 18 28 29 45 87 145 281
2020-07-08 01:00 0.94 25 311 (2016) 11 (2012) 82 18 28 29 45 87 145 281
2020-07-08 00:30 0.94 25 311 (2016) 11 (2012) 82 18 28 29 45 87 145 281
2020-07-08 00:00 0.94 25 311 (2016) 11 (2012) 82 18 28 29 45 87 145 281
2020-07-07 23:30 0.94 25 269 (2016) 11 (2012) 76 16 27 31 47 105 145 214
2020-07-07 23:00 0.94 25 269 (2016) 11 (2012) 76 16 27 31 47 105 145 214
2020-07-07 22:30 0.94 25 269 (2016) 11 (2012) 76 16 27 31 47 105 145 214
2020-07-07 22:00 0.95 26 269 (2016) 11 (2012) 76 16 27 31 47 105 145 214
2020-07-07 21:30 0.94 25 269 (2016) 11 (2012) 76 16 27 31 47 105 145 214
2020-07-07 21:00 0.95 26 269 (2016) 11 (2012) 76 16 27 31 47 105 145 214
2020-07-07 20:30 0.95 26 269 (2016) 11 (2012) 76 16 27 31 47 105 145 214
2020-07-07 20:00 0.95 26 269 (2016) 11 (2012) 76 16 27 31 47 105 145 214
2020-07-07 19:30 0.95 26 269 (2016) 11 (2012) 76 16 27 31 47 105 145 214
2020-07-07 19:00 0.95 26 269 (2016) 11 (2012) 76 16 27 31 47 105 145 214
2020-07-07 18:30 0.95 26 269 (2016) 11 (2012) 76 16 27 31 47 105 145 214
2020-07-07 18:00 0.95 26 269 (2016) 11 (2012) 76 16 27 31 47 105 145 214
2020-07-07 17:30 0.95 26 269 (2016) 11 (2012) 76 16 27 31 47 105 145 214
2020-07-07 17:00 0.95 26 269 (2016) 11 (2012) 76 16 27 31 47 105 145 214
2020-07-07 16:30 0.96 28 269 (2016) 11 (2012) 76 16 27 31 47 105 145 214
2020-07-07 16:00 0.96 28 269 (2016) 11 (2012) 76 16 27 31 47 105 145 214
2020-07-07 15:30 0.95 26 269 (2016) 11 (2012) 76 16 27 31 47 105 145 214
2020-07-07 15:00 0.96 28 269 (2016) 11 (2012) 76 16 27 31 47 105 145 214
2020-07-07 14:30 0.96 28 269 (2016) 11 (2012) 76 16 27 31 47 105 145 214
2020-07-07 14:00 0.96 28 269 (2016) 11 (2012) 76 16 27 31 47 105 145 214
2020-07-07 13:30 0.96 28 269 (2016) 11 (2012) 76 16 27 31 47 105 145 214
2020-07-07 13:00 0.95 26 269 (2016) 11 (2012) 76 16 27 31 47 105 145 214
2020-07-07 12:30 0.96 28 269 (2016) 11 (2012) 76 16 27 31 47 105 145 214
2020-07-07 12:00 0.95 26 269 (2016) 11 (2012) 76 16 27 31 47 105 145 214
2020-07-07 11:30 0.96 28 269 (2016) 11 (2012) 76 16 27 31 47 105 145 214
2020-07-07 11:00 0.95 26 269 (2016) 11 (2012) 76 16 27 31 47 105 145 214
2020-07-07 10:30 0.95 26 269 (2016) 11 (2012) 76 16 27 31 47 105 145 214
2020-07-07 10:00 0.95 26 269 (2016) 11 (2012) 76 16 27 31 47 105 145 214
2020-07-07 09:30 0.95 26 269 (2016) 11 (2012) 76 16 27 31 47 105 145 214
2020-07-07 09:00 0.95 26 269 (2016) 11 (2012) 76 16 27 31 47 105 145 214
2020-07-07 08:30 0.95 26 269 (2016) 11 (2012) 76 16 27 31 47 105 145 214
2020-07-07 08:00 0.95 26 269 (2016) 11 (2012) 76 16 27 31 47 105 145 214
2020-07-07 07:30 0.95 26 269 (2016) 11 (2012) 76 16 27 31 47 105 145 214
2020-07-07 07:00 0.95 26 269 (2016) 11 (2012) 76 16 27 31 47 105 145 214
2020-07-07 06:30 0.95 26 269 (2016) 11 (2012) 76 16 27 31 47 105 145 214
2020-07-07 06:00 0.95 26 269 (2016) 11 (2012) 76 16 27 31 47 105 145 214
2020-07-07 05:30 0.95 26 269 (2016) 11 (2012) 76 16 27 31 47 105 145 214
2020-07-07 05:00 0.95 26 269 (2016) 11 (2012) 76 16 27 31 47 105 145 214
2020-07-07 04:30 0.95 26 269 (2016) 11 (2012) 76 16 27 31 47 105 145 214
2020-07-07 04:00 0.95 26 269 (2016) 11 (2012) 76 16 27 31 47 105 145 214
2020-07-07 03:30 0.95 26 269 (2016) 11 (2012) 76 16 27 31 47 105 145 214
2020-07-07 03:00 0.95 26 269 (2016) 11 (2012) 76 16 27 31 47 105 145 214
2020-07-07 02:30 0.96 28 269 (2016) 11 (2012) 76 16 27 31 47 105 145 214
2020-07-07 02:00 0.96 28 269 (2016) 11 (2012) 76 16 27 31 47 105 145 214
2020-07-07 01:30 0.96 28 269 (2016) 11 (2012) 76 16 27 31 47 105 145 214
2020-07-07 01:00 0.96 28 269 (2016) 11 (2012) 76 16 27 31 47 105 145 214
2020-07-07 00:30 0.96 28 269 (2016) 11 (2012) 76 16 27 31 47 105 145 214
2020-07-07 00:00 0.96 28 269 (2016) 11 (2012) 76 16 27 31 47 105 145 214
2020-07-06 23:30 0.96 28 181 (2014) 11 (2012) 63 16 29 34 53 88 96 139
2020-07-06 23:00 0.96 28 181 (2014) 11 (2012) 63 16 29 34 53 88 96 139
2020-07-06 22:30 0.96 28 181 (2014) 11 (2012) 63 16 29 34 53 88 96 139
2020-07-06 22:00 0.97 29 181 (2014) 11 (2012) 63 16 29 34 53 88 96 139
2020-07-06 21:30 0.97 29 181 (2014) 11 (2012) 63 16 29 34 53 88 96 139
2020-07-06 21:00 0.97 29 181 (2014) 11 (2012) 63 16 29 34 53 88 96 139
2020-07-06 20:30 0.97 29 181 (2014) 11 (2012) 63 16 29 34 53 88 96 139
2020-07-06 20:00 0.97 29 181 (2014) 11 (2012) 63 16 29 34 53 88 96 139
2020-07-06 19:30 0.97 29 181 (2014) 11 (2012) 63 16 29 34 53 88 96 139
2020-07-06 19:00 0.97 29 181 (2014) 11 (2012) 63 16 29 34 53 88 96 139
2020-07-06 18:30 0.97 29 181 (2014) 11 (2012) 63 16 29 34 53 88 96 139
2020-07-06 18:00 0.98 30 181 (2014) 11 (2012) 63 16 29 34 53 88 96 139
2020-07-06 17:30 0.97 29 181 (2014) 11 (2012) 63 16 29 34 53 88 96 139
2020-07-06 17:00 0.97 29 181 (2014) 11 (2012) 63 16 29 34 53 88 96 139
2020-07-06 16:30 0.96 28 181 (2014) 11 (2012) 63 16 29 34 53 88 96 139
2020-07-06 16:00 0.98 30 181 (2014) 11 (2012) 63 16 29 34 53 88 96 139
2020-07-06 15:30 0.98 30 181 (2014) 11 (2012) 63 16 29 34 53 88 96 139
2020-07-06 15:00 0.97 29 181 (2014) 11 (2012) 63 16 29 34 53 88 96 139
2020-07-06 14:30 0.98 30 181 (2014) 11 (2012) 63 16 29 34 53 88 96 139
2020-07-06 14:00 0.98 30 181 (2014) 11 (2012) 63 16 29 34 53 88 96 139
2020-07-06 13:30 0.98 30 181 (2014) 11 (2012) 63 16 29 34 53 88 96 139
2020-07-06 13:00 0.97 29 181 (2014) 11 (2012) 63 16 29 34 53 88 96 139
2020-07-06 12:30 0.97 29 181 (2014) 11 (2012) 63 16 29 34 53 88 96 139
2020-07-06 12:00 0.97 29 181 (2014) 11 (2012) 63 16 29 34 53 88 96 139
2020-07-06 11:30 0.97 29 181 (2014) 11 (2012) 63 16 29 34 53 88 96 139
2020-07-06 11:00 0.97 29 181 (2014) 11 (2012) 63 16 29 34 53 88 96 139
2020-07-06 10:30 0.97 29 181 (2014) 11 (2012) 63 16 29 34 53 88 96 139
2020-07-06 10:00 0.97 29 181 (2014) 11 (2012) 63 16 29 34 53 88 96 139
2020-07-06 09:30 0.97 29 181 (2014) 11 (2012) 63 16 29 34 53 88 96 139
2020-07-06 09:00 0.97 29 181 (2014) 11 (2012) 63 16 29 34 53 88 96 139
2020-07-06 08:30 0.97 29 181 (2014) 11 (2012) 63 16 29 34 53 88 96 139
2020-07-06 08:00 0.97 29 181 (2014) 11 (2012) 63 16 29 34 53 88 96 139
2020-07-06 07:30 0.97 29 181 (2014) 11 (2012) 63 16 29 34 53 88 96 139
2020-07-06 07:00 0.97 29 181 (2014) 11 (2012) 63 16 29 34 53 88 96 139
2020-07-06 06:30 0.97 29 181 (2014) 11 (2012) 63 16 29 34 53 88 96 139
2020-07-06 06:00 0.97 29 181 (2014) 11 (2012) 63 16 29 34 53 88 96 139
2020-07-06 05:30 0.97 29 181 (2014) 11 (2012) 63 16 29 34 53 88 96 139
2020-07-06 05:00 0.97 29 181 (2014) 11 (2012) 63 16 29 34 53 88 96 139
2020-07-06 04:30 0.97 29 181 (2014) 11 (2012) 63 16 29 34 53 88 96 139
2020-07-06 04:00 0.97 29 181 (2014) 11 (2012) 63 16 29 34 53 88 96 139
2020-07-06 03:30 0.97 29 181 (2014) 11 (2012) 63 16 29 34 53 88 96 139
2020-07-06 03:00 0.97 29 181 (2014) 11 (2012) 63 16 29 34 53 88 96 139
2020-07-06 02:30 0.98 30 181 (2014) 11 (2012) 63 16 29 34 53 88 96 139
2020-07-06 02:00 0.97 29 181 (2014) 11 (2012) 63 16 29 34 53 88 96 139
2020-07-06 01:30 0.98 30 181 (2014) 11 (2012) 63 16 29 34 53 88 96 139
2020-07-06 01:00 0.98 30 181 (2014) 11 (2012) 63 16 29 34 53 88 96 139
2020-07-06 00:30 0.98 30 181 (2014) 11 (2012) 63 16 29 34 53 88 96 139
2020-07-06 00:00 0.98 30 181 (2014) 11 (2012) 63 16 29 34 53 88 96 139

A total of 376 rows are displayed for years 2006 through 2019.